sensor_id;sensor_type;location;lat;lon;timestamp;P1;durP1;ratioP1;P2;durP2;ratioP2
8540;SDS011;4308;51.294;6.590;2024-02-28T00:00:32;128.17;;;44.47;;
8540;SDS011;4308;51.294;6.590;2024-02-28T00:03:00;114.67;;;40.97;;
8540;SDS011;4308;51.294;6.590;2024-02-28T00:05:28;106.00;;;41.70;;
8540;SDS011;4308;51.294;6.590;2024-02-28T00:07:55;109.77;;;39.63;;
8540;SDS011;4308;51.294;6.590;2024-02-28T00:10:23;105.87;;;38.57;;
8540;SDS011;4308;51.294;6.590;2024-02-28T00:12:50;92.17;;;36.70;;
8540;SDS011;4308;51.294;6.590;2024-02-28T00:15:18;111.97;;;40.47;;
8540;SDS011;4308;51.294;6.590;2024-02-28T00:17:46;107.37;;;39.87;;
8540;SDS011;4308;51.294;6.590;2024-02-28T00:20:13;93.63;;;36.13;;
8540;SDS011;4308;51.294;6.590;2024-02-28T00:22:41;95.20;;;37.23;;
8540;SDS011;4308;51.294;6.590;2024-02-28T00:25:08;94.93;;;36.73;;
8540;SDS011;4308;51.294;6.590;2024-02-28T00:27:36;96.93;;;37.80;;
8540;SDS011;4308;51.294;6.590;2024-02-28T00:30:04;124.10;;;43.10;;
8540;SDS011;4308;51.294;6.590;2024-02-28T00:32:32;91.27;;;37.13;;
8540;SDS011;4308;51.294;6.590;2024-02-28T00:35:00;102.57;;;37.63;;
8540;SDS011;4308;51.294;6.590;2024-02-28T00:37:27;102.37;;;39.13;;
8540;SDS011;4308;51.294;6.590;2024-02-28T00:39:55;111.40;;;39.67;;
8540;SDS011;4308;51.294;6.590;2024-02-28T00:42:23;100.60;;;36.27;;
8540;SDS011;4308;51.294;6.590;2024-02-28T00:44:50;92.83;;;36.57;;
8540;SDS011;4308;51.294;6.590;2024-02-28T00:47:18;88.00;;;36.33;;
8540;SDS011;4308;51.294;6.590;2024-02-28T00:49:45;94.10;;;36.50;;
8540;SDS011;4308;51.294;6.590;2024-02-28T00:52:13;107.87;;;37.43;;
8540;SDS011;4308;51.294;6.590;2024-02-28T00:54:41;106.83;;;37.30;;
8540;SDS011;4308;51.294;6.590;2024-02-28T00:57:08;97.27;;;35.23;;
8540;SDS011;4308;51.294;6.590;2024-02-28T00:59:36;89.77;;;35.33;;
8540;SDS011;4308;51.294;6.590;2024-02-28T01:02:04;97.50;;;36.10;;
8540;SDS011;4308;51.294;6.590;2024-02-28T01:04:31;93.83;;;36.23;;
8540;SDS011;4308;51.294;6.590;2024-02-28T01:06:59;95.13;;;37.67;;
8540;SDS011;4308;51.294;6.590;2024-02-28T01:09:27;101.60;;;36.80;;
8540;SDS011;4308;51.294;6.590;2024-02-28T01:11:54;120.83;;;39.70;;
8540;SDS011;4308;51.294;6.590;2024-02-28T01:14:22;79.77;;;33.93;;
8540;SDS011;4308;51.294;6.590;2024-02-28T01:16:50;106.30;;;37.87;;
8540;SDS011;4308;51.294;6.590;2024-02-28T01:19:17;98.37;;;35.60;;
8540;SDS011;4308;51.294;6.590;2024-02-28T01:21:45;96.77;;;37.00;;
8540;SDS011;4308;51.294;6.590;2024-02-28T01:24:13;88.57;;;32.60;;
8540;SDS011;4308;51.294;6.590;2024-02-28T01:26:40;84.50;;;34.53;;
8540;SDS011;4308;51.294;6.590;2024-02-28T01:29:08;83.17;;;34.70;;
8540;SDS011;4308;51.294;6.590;2024-02-28T01:31:35;89.27;;;34.43;;
8540;SDS011;4308;51.294;6.590;2024-02-28T01:34:03;97.07;;;36.73;;
8540;SDS011;4308;51.294;6.590;2024-02-28T01:36:31;88.53;;;35.17;;
8540;SDS011;4308;51.294;6.590;2024-02-28T01:38:58;80.97;;;34.37;;
8540;SDS011;4308;51.294;6.590;2024-02-28T01:41:26;97.40;;;36.83;;
8540;SDS011;4308;51.294;6.590;2024-02-28T01:43:54;96.77;;;36.17;;
8540;SDS011;4308;51.294;6.590;2024-02-28T01:46:22;129.67;;;42.77;;
8540;SDS011;4308;51.294;6.590;2024-02-28T01:48:51;100.47;;;36.00;;
8540;SDS011;4308;51.294;6.590;2024-02-28T01:51:19;92.50;;;37.00;;
8540;SDS011;4308;51.294;6.590;2024-02-28T01:53:48;107.57;;;38.00;;
8540;SDS011;4308;51.294;6.590;2024-02-28T01:56:17;94.20;;;36.43;;
8540;SDS011;4308;51.294;6.590;2024-02-28T01:58:46;95.67;;;36.93;;
8540;SDS011;4308;51.294;6.590;2024-02-28T02:01:14;94.57;;;37.03;;
8540;SDS011;4308;51.294;6.590;2024-02-28T02:03:43;87.27;;;34.53;;
8540;SDS011;4308;51.294;6.590;2024-02-28T02:06:11;108.43;;;38.20;;
8540;SDS011;4308;51.294;6.590;2024-02-28T02:08:38;92.97;;;36.10;;
8540;SDS011;4308;51.294;6.590;2024-02-28T02:11:06;94.00;;;35.23;;
8540;SDS011;4308;51.294;6.590;2024-02-28T02:13:34;95.67;;;35.03;;
8540;SDS011;4308;51.294;6.590;2024-02-28T02:16:02;100.70;;;38.57;;
8540;SDS011;4308;51.294;6.590;2024-02-28T02:18:32;90.23;;;37.03;;
8540;SDS011;4308;51.294;6.590;2024-02-28T02:21:02;84.70;;;35.43;;
8540;SDS011;4308;51.294;6.590;2024-02-28T02:23:32;87.90;;;35.47;;
8540;SDS011;4308;51.294;6.590;2024-02-28T02:25:59;87.37;;;35.97;;
8540;SDS011;4308;51.294;6.590;2024-02-28T02:28:27;101.80;;;37.93;;
8540;SDS011;4308;51.294;6.590;2024-02-28T02:30:54;86.43;;;36.87;;
8540;SDS011;4308;51.294;6.590;2024-02-28T02:33:22;89.67;;;37.83;;
8540;SDS011;4308;51.294;6.590;2024-02-28T02:35:51;99.97;;;38.27;;
8540;SDS011;4308;51.294;6.590;2024-02-28T02:38:19;108.50;;;39.80;;
8540;SDS011;4308;51.294;6.590;2024-02-28T02:40:50;94.13;;;39.40;;
8540;SDS011;4308;51.294;6.590;2024-02-28T02:43:18;88.00;;;39.33;;
8540;SDS011;4308;51.294;6.590;2024-02-28T02:45:45;85.00;;;37.73;;
8540;SDS011;4308;51.294;6.590;2024-02-28T02:48:13;93.67;;;39.17;;
8540;SDS011;4308;51.294;6.590;2024-02-28T02:50:41;87.77;;;37.23;;
8540;SDS011;4308;51.294;6.590;2024-02-28T02:53:09;93.13;;;38.97;;
8540;SDS011;4308;51.294;6.590;2024-02-28T02:55:37;118.80;;;42.63;;
8540;SDS011;4308;51.294;6.590;2024-02-28T02:58:04;148.53;;;47.00;;
8540;SDS011;4308;51.294;6.590;2024-02-28T03:00:32;468.10;;;64.50;;
8540;SDS011;4308;51.294;6.590;2024-02-28T03:03:00;431.00;;;65.33;;
8540;SDS011;4308;51.294;6.590;2024-02-28T03:05:27;364.03;;;59.60;;
8540;SDS011;4308;51.294;6.590;2024-02-28T03:07:55;445.07;;;66.50;;
8540;SDS011;4308;51.294;6.590;2024-02-28T03:10:23;245.37;;;59.07;;
8540;SDS011;4308;51.294;6.590;2024-02-28T03:12:50;330.93;;;64.87;;
8540;SDS011;4308;51.294;6.590;2024-02-28T03:15:18;329.67;;;62.67;;
8540;SDS011;4308;51.294;6.590;2024-02-28T03:17:46;373.27;;;68.73;;
8540;SDS011;4308;51.294;6.590;2024-02-28T03:20:13;253.13;;;57.37;;
8540;SDS011;4308;51.294;6.590;2024-02-28T03:22:41;261.47;;;57.27;;
8540;SDS011;4308;51.294;6.590;2024-02-28T03:25:09;193.93;;;55.17;;
8540;SDS011;4308;51.294;6.590;2024-02-28T03:27:36;199.60;;;53.67;;
8540;SDS011;4308;51.294;6.590;2024-02-28T03:30:04;242.93;;;54.53;;
8540;SDS011;4308;51.294;6.590;2024-02-28T03:32:32;319.70;;;63.60;;
8540;SDS011;4308;51.294;6.590;2024-02-28T03:34:59;389.10;;;65.57;;
8540;SDS011;4308;51.294;6.590;2024-02-28T03:37:27;498.97;;;79.73;;
8540;SDS011;4308;51.294;6.590;2024-02-28T03:39:55;461.37;;;74.00;;
8540;SDS011;4308;51.294;6.590;2024-02-28T03:42:22;399.17;;;70.77;;
8540;SDS011;4308;51.294;6.590;2024-02-28T03:44:50;499.33;;;80.30;;
8540;SDS011;4308;51.294;6.590;2024-02-28T03:47:18;426.10;;;73.07;;
8540;SDS011;4308;51.294;6.590;2024-02-28T03:49:45;417.17;;;74.37;;
8540;SDS011;4308;51.294;6.590;2024-02-28T03:52:13;482.27;;;74.57;;
8540;SDS011;4308;51.294;6.590;2024-02-28T03:54:43;506.93;;;78.73;;
8540;SDS011;4308;51.294;6.590;2024-02-28T03:57:11;505.80;;;80.13;;
8540;SDS011;4308;51.294;6.590;2024-02-28T03:59:40;469.00;;;76.73;;
8540;SDS011;4308;51.294;6.590;2024-02-28T04:02:07;483.47;;;82.30;;
8540;SDS011;4308;51.294;6.590;2024-02-28T04:04:35;453.83;;;80.37;;
8540;SDS011;4308;51.294;6.590;2024-02-28T04:07:03;428.07;;;71.20;;
8540;SDS011;4308;51.294;6.590;2024-02-28T04:09:30;500.93;;;83.20;;
8540;SDS011;4308;51.294;6.590;2024-02-28T04:11:58;474.53;;;79.27;;
8540;SDS011;4308;51.294;6.590;2024-02-28T04:14:26;409.37;;;77.00;;
8540;SDS011;4308;51.294;6.590;2024-02-28T04:16:53;445.13;;;75.97;;
8540;SDS011;4308;51.294;6.590;2024-02-28T04:19:21;381.97;;;77.50;;
8540;SDS011;4308;51.294;6.590;2024-02-28T04:21:48;620.80;;;97.33;;
8540;SDS011;4308;51.294;6.590;2024-02-28T04:24:16;416.67;;;77.33;;
8540;SDS011;4308;51.294;6.590;2024-02-28T04:26:44;420.23;;;78.47;;
8540;SDS011;4308;51.294;6.590;2024-02-28T04:29:11;392.87;;;74.87;;
8540;SDS011;4308;51.294;6.590;2024-02-28T04:31:39;363.80;;;76.70;;
8540;SDS011;4308;51.294;6.590;2024-02-28T04:34:07;415.27;;;81.27;;
8540;SDS011;4308;51.294;6.590;2024-02-28T04:36:34;436.33;;;84.47;;
8540;SDS011;4308;51.294;6.590;2024-02-28T04:39:02;327.63;;;72.10;;
8540;SDS011;4308;51.294;6.590;2024-02-28T04:41:30;350.73;;;71.73;;
8540;SDS011;4308;51.294;6.590;2024-02-28T04:43:57;328.20;;;68.63;;
8540;SDS011;4308;51.294;6.590;2024-02-28T04:46:25;253.87;;;62.17;;
8540;SDS011;4308;51.294;6.590;2024-02-28T04:48:52;316.90;;;61.53;;
8540;SDS011;4308;51.294;6.590;2024-02-28T04:51:20;308.43;;;65.40;;
8540;SDS011;4308;51.294;6.590;2024-02-28T04:53:48;321.47;;;64.63;;
8540;SDS011;4308;51.294;6.590;2024-02-28T04:56:15;328.47;;;66.83;;
8540;SDS011;4308;51.294;6.590;2024-02-28T04:58:43;381.17;;;77.73;;
8540;SDS011;4308;51.294;6.590;2024-02-28T05:01:11;303.70;;;68.50;;
8540;SDS011;4308;51.294;6.590;2024-02-28T05:03:39;323.37;;;72.57;;
8540;SDS011;4308;51.294;6.590;2024-02-28T05:06:06;464.93;;;86.43;;
8540;SDS011;4308;51.294;6.590;2024-02-28T05:08:37;370.10;;;72.07;;
8540;SDS011;4308;51.294;6.590;2024-02-28T05:11:05;385.60;;;76.97;;
8540;SDS011;4308;51.294;6.590;2024-02-28T05:13:33;372.37;;;73.30;;
8540;SDS011;4308;51.294;6.590;2024-02-28T05:16:02;396.53;;;71.87;;
8540;SDS011;4308;51.294;6.590;2024-02-28T05:18:29;422.73;;;73.70;;
8540;SDS011;4308;51.294;6.590;2024-02-28T05:20:57;376.13;;;72.03;;
8540;SDS011;4308;51.294;6.590;2024-02-28T05:23:27;341.13;;;68.07;;
8540;SDS011;4308;51.294;6.590;2024-02-28T05:25:55;325.40;;;67.90;;
8540;SDS011;4308;51.294;6.590;2024-02-28T05:28:23;309.43;;;64.70;;
8540;SDS011;4308;51.294;6.590;2024-02-28T05:30:50;357.13;;;71.07;;
8540;SDS011;4308;51.294;6.590;2024-02-28T05:33:18;229.87;;;60.90;;
8540;SDS011;4308;51.294;6.590;2024-02-28T05:35:46;297.97;;;64.03;;
8540;SDS011;4308;51.294;6.590;2024-02-28T05:38:14;301.27;;;67.00;;
8540;SDS011;4308;51.294;6.590;2024-02-28T05:40:41;269.03;;;63.30;;
8540;SDS011;4308;51.294;6.590;2024-02-28T05:43:09;236.50;;;57.87;;
8540;SDS011;4308;51.294;6.590;2024-02-28T05:45:36;302.00;;;62.23;;
8540;SDS011;4308;51.294;6.590;2024-02-28T05:48:04;218.03;;;56.50;;
8540;SDS011;4308;51.294;6.590;2024-02-28T05:50:32;236.00;;;59.03;;
8540;SDS011;4308;51.294;6.590;2024-02-28T05:53:00;245.20;;;55.10;;
8540;SDS011;4308;51.294;6.590;2024-02-28T05:55:27;207.67;;;53.37;;
8540;SDS011;4308;51.294;6.590;2024-02-28T05:57:55;258.70;;;59.93;;
8540;SDS011;4308;51.294;6.590;2024-02-28T06:00:23;309.90;;;61.33;;
8540;SDS011;4308;51.294;6.590;2024-02-28T06:02:50;246.90;;;59.07;;
8540;SDS011;4308;51.294;6.590;2024-02-28T06:05:18;277.83;;;58.70;;
8540;SDS011;4308;51.294;6.590;2024-02-28T06:07:45;312.37;;;62.73;;
8540;SDS011;4308;51.294;6.590;2024-02-28T06:10:13;295.03;;;60.93;;
8540;SDS011;4308;51.294;6.590;2024-02-28T06:12:41;237.57;;;57.70;;
8540;SDS011;4308;51.294;6.590;2024-02-28T06:15:08;208.70;;;55.37;;
8540;SDS011;4308;51.294;6.590;2024-02-28T06:17:36;262.37;;;61.23;;
8540;SDS011;4308;51.294;6.590;2024-02-28T06:20:04;261.13;;;59.60;;
8540;SDS011;4308;51.294;6.590;2024-02-28T06:22:32;272.00;;;61.10;;
8540;SDS011;4308;51.294;6.590;2024-02-28T06:24:59;269.37;;;61.10;;
8540;SDS011;4308;51.294;6.590;2024-02-28T06:27:27;305.50;;;59.17;;
8540;SDS011;4308;51.294;6.590;2024-02-28T06:29:55;234.70;;;61.47;;
8540;SDS011;4308;51.294;6.590;2024-02-28T06:32:25;239.30;;;59.13;;
8540;SDS011;4308;51.294;6.590;2024-02-28T06:34:53;240.73;;;58.97;;
8540;SDS011;4308;51.294;6.590;2024-02-28T06:37:20;308.17;;;64.27;;
8540;SDS011;4308;51.294;6.590;2024-02-28T06:39:48;226.60;;;57.83;;
8540;SDS011;4308;51.294;6.590;2024-02-28T06:42:16;212.43;;;57.63;;
8540;SDS011;4308;51.294;6.590;2024-02-28T06:44:43;236.17;;;56.83;;
8540;SDS011;4308;51.294;6.590;2024-02-28T06:47:11;300.70;;;61.63;;
8540;SDS011;4308;51.294;6.590;2024-02-28T06:49:38;226.60;;;53.40;;
8540;SDS011;4308;51.294;6.590;2024-02-28T06:52:06;212.40;;;55.30;;
8540;SDS011;4308;51.294;6.590;2024-02-28T06:54:34;240.13;;;58.43;;
8540;SDS011;4308;51.294;6.590;2024-02-28T06:57:02;188.47;;;56.93;;
8540;SDS011;4308;51.294;6.590;2024-02-28T06:59:29;215.63;;;58.57;;
8540;SDS011;4308;51.294;6.590;2024-02-28T07:01:57;223.13;;;57.90;;
8540;SDS011;4308;51.294;6.590;2024-02-28T07:04:25;189.10;;;57.03;;
8540;SDS011;4308;51.294;6.590;2024-02-28T07:06:52;173.33;;;53.20;;
8540;SDS011;4308;51.294;6.590;2024-02-28T07:09:20;165.80;;;53.33;;
8540;SDS011;4308;51.294;6.590;2024-02-28T07:11:48;181.80;;;55.90;;
8540;SDS011;4308;51.294;6.590;2024-02-28T07:14:15;182.87;;;53.10;;
8540;SDS011;4308;51.294;6.590;2024-02-28T07:16:45;185.50;;;57.43;;
8540;SDS011;4308;51.294;6.590;2024-02-28T07:19:13;174.80;;;56.10;;
8540;SDS011;4308;51.294;6.590;2024-02-28T07:21:40;171.40;;;55.83;;
8540;SDS011;4308;51.294;6.590;2024-02-28T07:24:08;189.80;;;57.70;;
8540;SDS011;4308;51.294;6.590;2024-02-28T07:26:36;171.17;;;55.70;;
8540;SDS011;4308;51.294;6.590;2024-02-28T07:29:03;160.10;;;57.60;;
8540;SDS011;4308;51.294;6.590;2024-02-28T07:31:31;177.93;;;55.87;;
8540;SDS011;4308;51.294;6.590;2024-02-28T07:33:59;160.03;;;53.27;;
8540;SDS011;4308;51.294;6.590;2024-02-28T07:36:26;162.00;;;56.37;;
8540;SDS011;4308;51.294;6.590;2024-02-28T07:38:54;153.27;;;53.10;;
8540;SDS011;4308;51.294;6.590;2024-02-28T07:41:21;143.03;;;53.03;;
8540;SDS011;4308;51.294;6.590;2024-02-28T07:43:49;137.60;;;50.40;;
8540;SDS011;4308;51.294;6.590;2024-02-28T07:46:17;134.97;;;51.20;;
8540;SDS011;4308;51.294;6.590;2024-02-28T07:48:44;133.87;;;47.93;;
8540;SDS011;4308;51.294;6.590;2024-02-28T07:51:12;139.00;;;49.37;;
8540;SDS011;4308;51.294;6.590;2024-02-28T07:53:40;114.53;;;45.43;;
8540;SDS011;4308;51.294;6.590;2024-02-28T07:56:14;120.87;;;47.83;;
8540;SDS011;4308;51.294;6.590;2024-02-28T07:58:42;107.53;;;44.87;;
8540;SDS011;4308;51.294;6.590;2024-02-28T08:01:10;110.40;;;46.07;;
8540;SDS011;4308;51.294;6.590;2024-02-28T08:03:37;105.40;;;43.33;;
8540;SDS011;4308;51.294;6.590;2024-02-28T08:06:05;96.80;;;41.33;;
8540;SDS011;4308;51.294;6.590;2024-02-28T08:08:33;94.20;;;41.80;;
8540;SDS011;4308;51.294;6.590;2024-02-28T08:11:00;81.70;;;36.43;;
8540;SDS011;4308;51.294;6.590;2024-02-28T08:13:28;86.60;;;40.50;;
8540;SDS011;4308;51.294;6.590;2024-02-28T08:15:56;86.27;;;39.10;;
8540;SDS011;4308;51.294;6.590;2024-02-28T08:18:24;85.27;;;39.43;;
8540;SDS011;4308;51.294;6.590;2024-02-28T08:20:52;93.90;;;40.90;;
8540;SDS011;4308;51.294;6.590;2024-02-28T08:23:19;95.93;;;41.67;;
8540;SDS011;4308;51.294;6.590;2024-02-28T08:25:47;104.90;;;43.93;;
8540;SDS011;4308;51.294;6.590;2024-02-28T08:28:15;89.57;;;40.37;;
8540;SDS011;4308;51.294;6.590;2024-02-28T08:30:42;101.63;;;42.63;;
8540;SDS011;4308;51.294;6.590;2024-02-28T08:33:10;97.03;;;40.77;;
8540;SDS011;4308;51.294;6.590;2024-02-28T08:35:37;85.43;;;39.23;;
8540;SDS011;4308;51.294;6.590;2024-02-28T08:38:05;93.67;;;43.17;;
8540;SDS011;4308;51.294;6.590;2024-02-28T08:40:32;98.23;;;44.23;;
8540;SDS011;4308;51.294;6.590;2024-02-28T08:43:00;87.67;;;41.70;;
8540;SDS011;4308;51.294;6.590;2024-02-28T08:45:28;86.13;;;40.50;;
8540;SDS011;4308;51.294;6.590;2024-02-28T08:47:56;96.07;;;43.13;;
8540;SDS011;4308;51.294;6.590;2024-02-28T08:50:26;90.43;;;42.33;;
8540;SDS011;4308;51.294;6.590;2024-02-28T08:52:53;89.50;;;42.00;;
8540;SDS011;4308;51.294;6.590;2024-02-28T08:55:21;88.73;;;41.90;;
8540;SDS011;4308;51.294;6.590;2024-02-28T08:57:49;94.07;;;42.50;;
8540;SDS011;4308;51.294;6.590;2024-02-28T09:00:16;90.53;;;43.07;;
8540;SDS011;4308;51.294;6.590;2024-02-28T09:02:45;95.30;;;42.13;;
8540;SDS011;4308;51.294;6.590;2024-02-28T09:05:13;89.23;;;42.87;;
8540;SDS011;4308;51.294;6.590;2024-02-28T09:07:40;96.40;;;43.80;;
8540;SDS011;4308;51.294;6.590;2024-02-28T09:10:08;97.50;;;42.80;;
8540;SDS011;4308;51.294;6.590;2024-02-28T09:12:36;93.60;;;42.47;;
8540;SDS011;4308;51.294;6.590;2024-02-28T09:15:03;87.00;;;40.23;;
8540;SDS011;4308;51.294;6.590;2024-02-28T09:17:32;96.70;;;42.00;;
8540;SDS011;4308;51.294;6.590;2024-02-28T09:19:59;90.00;;;38.73;;
8540;SDS011;4308;51.294;6.590;2024-02-28T09:22:27;91.43;;;40.57;;
8540;SDS011;4308;51.294;6.590;2024-02-28T09:24:55;87.57;;;39.20;;
8540;SDS011;4308;51.294;6.590;2024-02-28T09:27:22;85.87;;;38.60;;
8540;SDS011;4308;51.294;6.590;2024-02-28T09:29:50;82.27;;;39.50;;
8540;SDS011;4308;51.294;6.590;2024-02-28T09:32:17;87.20;;;38.13;;
8540;SDS011;4308;51.294;6.590;2024-02-28T09:34:45;81.13;;;37.13;;
8540;SDS011;4308;51.294;6.590;2024-02-28T09:37:13;85.63;;;39.87;;
8540;SDS011;4308;51.294;6.590;2024-02-28T09:39:41;87.87;;;41.27;;
8540;SDS011;4308;51.294;6.590;2024-02-28T09:42:09;82.03;;;37.83;;
8540;SDS011;4308;51.294;6.590;2024-02-28T09:44:37;79.70;;;38.50;;
8540;SDS011;4308;51.294;6.590;2024-02-28T09:47:05;84.63;;;38.80;;
8540;SDS011;4308;51.294;6.590;2024-02-28T09:49:32;77.83;;;38.47;;
8540;SDS011;4308;51.294;6.590;2024-02-28T09:52:01;74.07;;;36.90;;
8540;SDS011;4308;51.294;6.590;2024-02-28T09:54:29;81.27;;;38.17;;
8540;SDS011;4308;51.294;6.590;2024-02-28T09:56:56;79.20;;;38.57;;
8540;SDS011;4308;51.294;6.590;2024-02-28T09:59:24;72.33;;;36.77;;
8540;SDS011;4308;51.294;6.590;2024-02-28T10:02:05;82.03;;;38.90;;
8540;SDS011;4308;51.294;6.590;2024-02-28T10:04:37;76.90;;;37.53;;
8540;SDS011;4308;51.294;6.590;2024-02-28T10:07:14;72.07;;;36.00;;
8540;SDS011;4308;51.294;6.590;2024-02-28T10:09:41;73.57;;;34.70;;
8540;SDS011;4308;51.294;6.590;2024-02-28T10:12:09;76.00;;;35.53;;
8540;SDS011;4308;51.294;6.590;2024-02-28T10:14:37;69.20;;;34.30;;
8540;SDS011;4308;51.294;6.590;2024-02-28T10:17:05;68.27;;;34.00;;
8540;SDS011;4308;51.294;6.590;2024-02-28T10:19:33;68.80;;;35.00;;
8540;SDS011;4308;51.294;6.590;2024-02-28T10:22:01;67.03;;;34.73;;
8540;SDS011;4308;51.294;6.590;2024-02-28T10:24:28;72.43;;;35.10;;
8540;SDS011;4308;51.294;6.590;2024-02-28T10:26:56;75.80;;;35.70;;
8540;SDS011;4308;51.294;6.590;2024-02-28T10:29:27;74.00;;;36.33;;
8540;SDS011;4308;51.294;6.590;2024-02-28T10:31:55;69.23;;;36.60;;
8540;SDS011;4308;51.294;6.590;2024-02-28T10:34:23;62.27;;;33.63;;
8540;SDS011;4308;51.294;6.590;2024-02-28T10:36:50;74.87;;;35.70;;
8540;SDS011;4308;51.294;6.590;2024-02-28T10:39:18;64.30;;;33.93;;
8540;SDS011;4308;51.294;6.590;2024-02-28T10:41:47;65.93;;;34.20;;
8540;SDS011;4308;51.294;6.590;2024-02-28T10:44:14;61.07;;;32.93;;
8540;SDS011;4308;51.294;6.590;2024-02-28T10:46:44;57.70;;;30.87;;
8540;SDS011;4308;51.294;6.590;2024-02-28T10:49:12;58.10;;;29.70;;
8540;SDS011;4308;51.294;6.590;2024-02-28T10:51:39;59.90;;;32.63;;
8540;SDS011;4308;51.294;6.590;2024-02-28T10:54:09;65.53;;;34.07;;
8540;SDS011;4308;51.294;6.590;2024-02-28T10:56:37;59.90;;;33.77;;
8540;SDS011;4308;51.294;6.590;2024-02-28T10:59:09;65.40;;;33.90;;
8540;SDS011;4308;51.294;6.590;2024-02-28T11:01:41;75.00;;;33.83;;
8540;SDS011;4308;51.294;6.590;2024-02-28T11:04:13;69.63;;;36.63;;
8540;SDS011;4308;51.294;6.590;2024-02-28T11:09:40;57.53;;;33.37;;
8540;SDS011;4308;51.294;6.590;2024-02-28T11:12:12;57.80;;;31.67;;
8540;SDS011;4308;51.294;6.590;2024-02-28T11:14:57;60.43;;;34.03;;
8540;SDS011;4308;51.294;6.590;2024-02-28T11:17:31;59.00;;;33.67;;
8540;SDS011;4308;51.294;6.590;2024-02-28T11:19:59;53.90;;;31.57;;
8540;SDS011;4308;51.294;6.590;2024-02-28T11:22:27;59.17;;;32.53;;
8540;SDS011;4308;51.294;6.590;2024-02-28T11:24:55;54.03;;;31.13;;
8540;SDS011;4308;51.294;6.590;2024-02-28T11:27:23;52.77;;;31.93;;
8540;SDS011;4308;51.294;6.590;2024-02-28T11:29:51;52.33;;;30.67;;
8540;SDS011;4308;51.294;6.590;2024-02-28T11:32:18;51.97;;;29.77;;
8540;SDS011;4308;51.294;6.590;2024-02-28T11:34:46;46.57;;;28.23;;
8540;SDS011;4308;51.294;6.590;2024-02-28T11:37:13;51.43;;;29.70;;
8540;SDS011;4308;51.294;6.590;2024-02-28T11:39:45;48.10;;;29.30;;
8540;SDS011;4308;51.294;6.590;2024-02-28T11:42:16;49.03;;;29.77;;
8540;SDS011;4308;51.294;6.590;2024-02-28T11:44:52;53.27;;;32.00;;
8540;SDS011;4308;51.294;6.590;2024-02-28T11:47:23;50.10;;;30.50;;
8540;SDS011;4308;51.294;6.590;2024-02-28T11:49:50;47.87;;;29.93;;
8540;SDS011;4308;51.294;6.590;2024-02-28T11:52:18;48.57;;;28.40;;
8540;SDS011;4308;51.294;6.590;2024-02-28T11:54:46;53.43;;;31.10;;
8540;SDS011;4308;51.294;6.590;2024-02-28T11:57:14;52.63;;;31.37;;
8540;SDS011;4308;51.294;6.590;2024-02-28T11:59:41;50.50;;;29.77;;
8540;SDS011;4308;51.294;6.590;2024-02-28T12:02:12;49.57;;;31.17;;
8540;SDS011;4308;51.294;6.590;2024-02-28T12:04:41;48.33;;;29.30;;
8540;SDS011;4308;51.294;6.590;2024-02-28T12:07:09;45.43;;;28.57;;
8540;SDS011;4308;51.294;6.590;2024-02-28T12:09:37;58.00;;;33.10;;
8540;SDS011;4308;51.294;6.590;2024-02-28T12:12:08;51.53;;;30.17;;
8540;SDS011;4308;51.294;6.590;2024-02-28T12:14:36;46.73;;;28.60;;
8540;SDS011;4308;51.294;6.590;2024-02-28T12:17:04;49.10;;;29.30;;
8540;SDS011;4308;51.294;6.590;2024-02-28T12:19:31;43.23;;;28.00;;
8540;SDS011;4308;51.294;6.590;2024-02-28T12:21:59;44.17;;;27.07;;
8540;SDS011;4308;51.294;6.590;2024-02-28T12:24:26;43.47;;;27.30;;
8540;SDS011;4308;51.294;6.590;2024-02-28T12:26:54;43.10;;;26.73;;
8540;SDS011;4308;51.294;6.590;2024-02-28T12:29:22;44.17;;;27.57;;
8540;SDS011;4308;51.294;6.590;2024-02-28T12:31:49;45.03;;;27.10;;
8540;SDS011;4308;51.294;6.590;2024-02-28T12:34:17;39.43;;;25.03;;
8540;SDS011;4308;51.294;6.590;2024-02-28T12:36:45;41.10;;;25.40;;
8540;SDS011;4308;51.294;6.590;2024-02-28T12:39:13;43.10;;;25.07;;
8540;SDS011;4308;51.294;6.590;2024-02-28T12:41:41;39.20;;;23.83;;
8540;SDS011;4308;51.294;6.590;2024-02-28T12:44:08;37.80;;;24.73;;
8540;SDS011;4308;51.294;6.590;2024-02-28T12:46:36;33.60;;;22.40;;
8540;SDS011;4308;51.294;6.590;2024-02-28T12:49:03;31.80;;;19.87;;
8540;SDS011;4308;51.294;6.590;2024-02-28T12:51:38;36.30;;;21.43;;
8540;SDS011;4308;51.294;6.590;2024-02-28T12:54:07;31.20;;;19.70;;
8540;SDS011;4308;51.294;6.590;2024-02-28T12:56:37;32.03;;;19.93;;
8540;SDS011;4308;51.294;6.590;2024-02-28T12:59:05;28.70;;;17.90;;
8540;SDS011;4308;51.294;6.590;2024-02-28T13:01:33;29.17;;;18.60;;
8540;SDS011;4308;51.294;6.590;2024-02-28T13:04:01;28.37;;;17.03;;
8540;SDS011;4308;51.294;6.590;2024-02-28T13:06:28;27.47;;;17.37;;
8540;SDS011;4308;51.294;6.590;2024-02-28T13:08:56;27.90;;;18.00;;
8540;SDS011;4308;51.294;6.590;2024-02-28T13:11:24;24.43;;;16.90;;
8540;SDS011;4308;51.294;6.590;2024-02-28T13:13:52;31.20;;;17.73;;
8540;SDS011;4308;51.294;6.590;2024-02-28T13:16:20;24.97;;;17.10;;
8540;SDS011;4308;51.294;6.590;2024-02-28T13:18:47;29.03;;;15.93;;
8540;SDS011;4308;51.294;6.590;2024-02-28T13:21:15;26.40;;;16.30;;
8540;SDS011;4308;51.294;6.590;2024-02-28T13:23:43;28.07;;;17.73;;
8540;SDS011;4308;51.294;6.590;2024-02-28T13:26:10;27.17;;;16.60;;
8540;SDS011;4308;51.294;6.590;2024-02-28T13:28:38;28.43;;;16.13;;
8540;SDS011;4308;51.294;6.590;2024-02-28T13:31:09;25.37;;;16.00;;
8540;SDS011;4308;51.294;6.590;2024-02-28T13:33:36;26.97;;;16.17;;
8540;SDS011;4308;51.294;6.590;2024-02-28T13:36:04;31.40;;;17.27;;
8540;SDS011;4308;51.294;6.590;2024-02-28T13:38:32;26.43;;;15.33;;
8540;SDS011;4308;51.294;6.590;2024-02-28T13:40:59;21.33;;;14.93;;
8540;SDS011;4308;51.294;6.590;2024-02-28T13:43:27;27.77;;;16.07;;
8540;SDS011;4308;51.294;6.590;2024-02-28T13:45:55;25.47;;;15.97;;
8540;SDS011;4308;51.294;6.590;2024-02-28T13:48:22;23.00;;;15.60;;
8540;SDS011;4308;51.294;6.590;2024-02-28T13:50:50;27.40;;;16.57;;
8540;SDS011;4308;51.294;6.590;2024-02-28T13:53:18;27.17;;;16.17;;
8540;SDS011;4308;51.294;6.590;2024-02-28T13:55:45;29.53;;;16.30;;
8540;SDS011;4308;51.294;6.590;2024-02-28T13:58:14;25.10;;;16.33;;
8540;SDS011;4308;51.294;6.590;2024-02-28T14:00:41;27.10;;;16.20;;
8540;SDS011;4308;51.294;6.590;2024-02-28T14:03:09;30.23;;;16.57;;
8540;SDS011;4308;51.294;6.590;2024-02-28T14:05:37;25.50;;;16.17;;
8540;SDS011;4308;51.294;6.590;2024-02-28T14:08:05;27.63;;;16.80;;
8540;SDS011;4308;51.294;6.590;2024-02-28T14:10:32;27.20;;;16.37;;
8540;SDS011;4308;51.294;6.590;2024-02-28T14:13:00;26.10;;;15.53;;
8540;SDS011;4308;51.294;6.590;2024-02-28T14:15:28;25.50;;;16.10;;
8540;SDS011;4308;51.294;6.590;2024-02-28T14:17:56;25.10;;;17.13;;
8540;SDS011;4308;51.294;6.590;2024-02-28T14:20:24;23.90;;;15.43;;
8540;SDS011;4308;51.294;6.590;2024-02-28T14:22:51;25.87;;;16.47;;
8540;SDS011;4308;51.294;6.590;2024-02-28T14:25:19;25.10;;;15.93;;
8540;SDS011;4308;51.294;6.590;2024-02-28T14:27:47;23.77;;;15.70;;
8540;SDS011;4308;51.294;6.590;2024-02-28T14:30:14;24.53;;;16.20;;
8540;SDS011;4308;51.294;6.590;2024-02-28T14:32:42;22.67;;;16.33;;
8540;SDS011;4308;51.294;6.590;2024-02-28T14:35:10;23.70;;;15.93;;
8540;SDS011;4308;51.294;6.590;2024-02-28T14:37:38;23.27;;;15.40;;
8540;SDS011;4308;51.294;6.590;2024-02-28T14:40:06;25.90;;;15.77;;
8540;SDS011;4308;51.294;6.590;2024-02-28T14:42:34;24.33;;;15.73;;
8540;SDS011;4308;51.294;6.590;2024-02-28T14:45:03;22.73;;;15.00;;
8540;SDS011;4308;51.294;6.590;2024-02-28T14:47:31;23.97;;;15.13;;
8540;SDS011;4308;51.294;6.590;2024-02-28T14:49:58;27.47;;;15.83;;